メインページ
METAR-TAF:

METAR-TAF

空港 :

ホルヘ・チャベス国際空港

リマ, ペルー

緯度: 12-00S, 経度: 077-07W, 海抜: 12m

現時点の気象観測

当レポートは24分前の22:00(UTC)に作成
の風 10kt
気温 19°C
湿度 78%
気圧 1013 hPa
視程10km以上
高度2300ftの曇り

METAR: SPJC 202200Z 18010KT 9999 OVC023 19/15 Q1013 NOSIG RMK PP000

時間: 17:24 (22:24 UTC)

予報

当レポートは24分前の22:00(UTC)に作成
予報は20日の 22時(UTC)から 21日の 18時(UTC)まで有効
の風 10kt
視程10km以上
高度2200ftの曇り
21日の 06時(UTC)から 21日の 08時(UTC)まで徐々に
の風 6kt
高度1500ftの曇り
21日の 1300時(UTC)から
西/南西の風 5kt
視程10km以上
高度2000ftの曇り
21日の 17時(UTC)から 21日の 21時(UTC)まで一時的に
高度2500ftの千切れ雲あり

TAF: SPJC 202200Z 2022/2118 18010KT 9999 OVC022 TX22/2118Z TN17/2110Z BECMG 2106/2108 18006KT OVC015 FM211300 25005KT 9999 OVC020 TEMPO 2117/2121 BKN025

4,000以上の空港の気象観測と天気予報(METAR報とTAF報)

利用可能な観測所は地図上に黄色い丸と赤い丸で示す。

丸の上にカーソルを重ねると観測所名を参照できる。

次にクリックすると気象観測と天気予報を参照できる。

マップの切り替え:黒色「×」印の緑ボタンをクリックして拡大、「-」印の緑ボタンをクリックして縮小、緑色の三角印をクリックして隣りの地図に切り替え


METAR-TAF: